首页
METAR-TAF:

METAR-TAF

机场 :

Greater Rochester International Airport

羅徹斯特, 紐約州, 美国

纬度: 43-07-00N, 经度: 077-40-36W, 海拔: 170米

当前天气观测

该预报发布于1小时和3分钟前的07:54 UTC
风速4节,风向西南
温度 16°C
湿度 88%
气压 1020 hPa
能見度: 16.1公里
散云层高于26000英尺

METAR: KROC 270754Z 22004KT 10SM SCT260 16/14 A3013 RMK AO2 SLP202 T01560139

时间: 04:57 (08:57 UTC)

预报

该预报发布于33分钟前的08:24 UTC
预报有效从27日的 08点(UTC)到 28日的 06点(UTC)
风速4节,风向西南
能見度: 10公里
多云层高于25000英尺
从 27日的 1400点(UTC)
风速5节,风向西
能見度: 10公里
少量云层高于25000英尺
从 27日的 2000点(UTC)
风速8节,风向西转西北
能見度: 10公里
少量云层高于5000英尺
从 28日的 0000点(UTC)
风速4节,风向西转西北
能見度: 10公里
少量云层高于25000英尺
从 28日的 0300点(UTC)
风速4节,风向南转西南
能見度: 10公里
少量云层高于25000英尺

TAF: KROC 270824Z 2708/2806 23004KT P6SM BKN250 FM271400 27005KT P6SM FEW250 FM272000 30008KT P6SM FEW050 FM280000 29004KT P6SM FEW250 FM280300 21004KT P6SM FEW250

超过4000个机场的气象观测和天气预报(METAR&TAF报告)。

可查询的气象台以黄色和红色小点在地图上表示。

将鼠标移到小点上方,可查看气象台名称。

然后点击查看天气观测和预报。

如需切换地图:点击带黑十字的绿色按钮放大地图;点击带横线的绿色按钮缩小地图;或者点击绿色箭头查看邻近地区的地图。


METAR-TAF: